createdAt,value
2023-05-17T00:01:08.707Z,2.85
2023-05-17T00:03:36.117Z,2.33
2023-05-17T00:06:03.281Z,2.25
2023-05-17T00:08:30.531Z,2.45
2023-05-17T00:10:57.693Z,2.30
2023-05-17T00:13:25.007Z,2.60
2023-05-17T00:15:52.159Z,2.13
2023-05-17T00:18:19.409Z,2.30
2023-05-17T00:20:46.562Z,2.50
2023-05-17T00:23:13.662Z,2.70
2023-05-17T00:25:41.088Z,3.05
2023-05-17T00:28:08.176Z,3.65
2023-05-17T00:30:35.378Z,2.72
2023-05-17T00:33:02.558Z,2.47
2023-05-17T00:35:29.868Z,2.55
2023-05-17T00:37:57.297Z,2.75
2023-05-17T00:40:24.642Z,2.63
2023-05-17T00:42:51.922Z,2.70
2023-05-17T00:45:19.043Z,3.10
2023-05-17T00:47:46.374Z,2.22
2023-05-17T00:50:13.689Z,2.42
2023-05-17T00:52:40.980Z,2.45
2023-05-17T00:55:08.311Z,2.83
2023-05-17T00:57:36.678Z,2.53
2023-05-17T01:00:04.288Z,2.25
2023-05-17T01:02:31.610Z,2.10
2023-05-17T01:04:59.269Z,2.13
2023-05-17T01:07:26.538Z,2.28
2023-05-17T01:09:53.784Z,2.50
2023-05-17T01:12:31.378Z,1.77
2023-05-17T01:15:07.886Z,1.50
2023-05-17T01:17:37.108Z,2.22
2023-05-17T01:20:15.604Z,2.50
2023-05-17T01:22:42.704Z,2.15
2023-05-17T01:25:21.214Z,2.22
2023-05-17T01:27:50.056Z,2.50
2023-05-17T01:30:18.308Z,1.60
2023-05-17T01:32:46.557Z,2.08
2023-05-17T01:35:13.744Z,2.25
2023-05-17T01:37:40.927Z,2.08
2023-05-17T01:40:08.972Z,2.83
2023-05-17T01:42:39.977Z,2.05
2023-05-17T01:45:10.724Z,2.92
2023-05-17T01:47:44.046Z,1.65
2023-05-17T01:50:15.277Z,2.03
2023-05-17T01:52:54.088Z,1.92
2023-05-17T01:55:39.987Z,1.50
2023-05-17T01:58:08.628Z,2.25
2023-05-17T02:00:36.667Z,1.80
2023-05-17T02:03:03.905Z,1.88
2023-05-17T02:05:31.339Z,1.83
2023-05-17T02:07:58.462Z,2.03
2023-05-17T02:10:25.563Z,1.90
2023-05-17T02:12:52.752Z,1.52
2023-05-17T02:15:19.917Z,1.88
2023-05-17T02:17:47.110Z,1.73
2023-05-17T02:20:14.256Z,1.80
2023-05-17T02:22:41.518Z,3.08
2023-05-17T02:25:08.844Z,1.65
2023-05-17T02:27:36.271Z,1.35
2023-05-17T02:30:04.556Z,1.52
2023-05-17T02:32:32.117Z,1.83
2023-05-17T02:34:59.605Z,2.10
2023-05-17T02:37:26.733Z,2.35
2023-05-17T02:39:53.840Z,1.98
2023-05-17T02:42:21.002Z,1.77
2023-05-17T02:44:52.744Z,2.85
2023-05-17T02:47:21.298Z,1.30
2023-05-17T02:49:48.484Z,2.13
2023-05-17T02:52:16.386Z,1.73
2023-05-17T02:54:43.780Z,1.48
2023-05-17T02:57:11.174Z,1.40
2023-05-17T02:59:38.408Z,2.05
2023-05-17T03:02:05.833Z,3.00
2023-05-17T03:04:33.797Z,3.17
2023-05-17T03:07:00.933Z,1.73
2023-05-17T03:09:30.158Z,2.25
2023-05-17T03:11:57.851Z,1.92
2023-05-17T03:14:25.016Z,1.92
2023-05-17T03:16:52.333Z,1.42
2023-05-17T03:19:19.530Z,1.95
2023-05-17T03:21:46.757Z,1.92
2023-05-17T03:24:13.865Z,2.05
2023-05-17T03:26:41.095Z,2.42
2023-05-17T03:29:08.243Z,1.80
2023-05-17T03:31:35.654Z,1.50
2023-05-17T03:34:02.893Z,1.52
2023-05-17T03:36:31.318Z,1.67
2023-05-17T03:38:58.488Z,1.83
2023-05-17T03:41:25.736Z,3.70
2023-05-17T03:43:52.915Z,2.15
2023-05-17T03:46:20.028Z,2.13
2023-05-17T03:48:47.187Z,2.08
2023-05-17T03:51:14.561Z,2.05
2023-05-17T03:53:43.461Z,1.40
2023-05-17T03:56:11.128Z,1.48
2023-05-17T03:58:38.272Z,1.63
2023-05-17T04:01:05.733Z,1.70
2023-05-17T04:03:32.955Z,2.03
2023-05-17T04:06:06.918Z,1.60
2023-05-17T04:08:35.026Z,1.67
2023-05-17T04:11:13.768Z,1.80
2023-05-17T04:13:41.577Z,2.15
2023-05-17T04:16:09.428Z,2.15
2023-05-17T04:18:37.276Z,1.85
2023-05-17T04:21:04.895Z,2.15
2023-05-17T04:23:35.465Z,2.10
2023-05-17T04:26:03.172Z,2.10
2023-05-17T04:28:30.359Z,1.88
2023-05-17T04:30:57.796Z,1.60
2023-05-17T04:33:25.229Z,2.20
2023-05-17T04:35:55.127Z,2.03
2023-05-17T04:38:22.290Z,2.17
2023-05-17T04:40:49.418Z,2.40
2023-05-17T04:43:16.655Z,2.03
2023-05-17T04:45:43.853Z,1.40
2023-05-17T04:48:11.117Z,2.20
2023-05-17T04:50:38.377Z,1.80
2023-05-17T04:53:05.536Z,1.98
2023-05-17T04:55:32.636Z,1.85
2023-05-17T04:57:59.746Z,1.80
2023-05-17T05:00:26.967Z,1.30
2023-05-17T05:02:54.129Z,1.75
2023-05-17T05:05:21.472Z,1.00
2023-05-17T05:07:48.581Z,2.10
2023-05-17T05:10:16.000Z,1.55
2023-05-17T05:12:43.350Z,1.67
2023-05-17T05:15:10.902Z,1.13
2023-05-17T05:17:38.150Z,1.30
2023-05-17T05:20:05.606Z,1.00
2023-05-17T05:22:32.706Z,1.35
2023-05-17T05:24:59.837Z,1.30
2023-05-17T05:27:26.991Z,1.45
2023-05-17T05:29:55.324Z,0.88
2023-05-17T05:32:22.495Z,1.10
2023-05-17T05:34:49.610Z,1.20
2023-05-17T05:37:19.171Z,0.73
2023-05-17T05:39:46.947Z,1.27
2023-05-17T05:42:14.026Z,0.75
2023-05-17T05:44:41.175Z,0.98
2023-05-17T05:47:08.306Z,0.90
2023-05-17T05:49:35.467Z,1.02
2023-05-17T05:52:02.827Z,1.00
2023-05-17T05:54:30.033Z,0.77
2023-05-17T05:56:57.237Z,0.90
2023-05-17T05:59:24.369Z,0.98
2023-05-17T06:01:51.824Z,0.70
2023-05-17T06:04:20.988Z,1.10
2023-05-17T06:06:49.801Z,0.60
2023-05-17T06:09:17.253Z,1.05
2023-05-17T06:11:44.409Z,0.70
2023-05-17T06:14:11.762Z,1.08
2023-05-17T06:16:38.860Z,0.77
2023-05-17T06:19:06.961Z,1.10
2023-05-17T06:21:34.082Z,0.95
2023-05-17T06:24:02.874Z,0.95
2023-05-17T06:26:31.980Z,1.23
2023-05-17T06:28:59.174Z,0.70
2023-05-17T06:31:26.518Z,0.70
2023-05-17T06:33:53.656Z,0.90
2023-05-17T06:36:20.955Z,1.23
2023-05-17T06:38:48.049Z,0.75
2023-05-17T06:41:15.214Z,0.90
2023-05-17T06:43:42.347Z,1.02
2023-05-17T06:46:09.520Z,0.57
2023-05-17T06:48:36.860Z,0.77
2023-05-17T06:51:04.147Z,0.70
2023-05-17T06:53:31.285Z,0.63
2023-05-17T06:55:58.462Z,0.77
2023-05-17T06:58:25.710Z,0.75
2023-05-17T07:00:53.112Z,0.63
2023-05-17T07:03:20.621Z,0.45
2023-05-17T07:05:47.851Z,0.70
2023-05-17T07:08:15.716Z,0.80
2023-05-17T07:10:42.852Z,0.52
2023-05-17T07:13:09.958Z,1.10
2023-05-17T07:15:39.802Z,0.90
2023-05-17T07:18:07.110Z,0.68
2023-05-17T07:20:34.355Z,0.70
2023-05-17T07:23:01.471Z,0.77
2023-05-17T07:25:28.812Z,0.65
2023-05-17T07:27:56.044Z,0.90
2023-05-17T07:30:23.157Z,0.70
2023-05-17T07:32:50.375Z,0.90
2023-05-17T07:35:18.239Z,0.70
2023-05-17T07:37:47.323Z,0.65
2023-05-17T07:40:14.586Z,0.77
2023-05-17T07:42:41.923Z,0.82
2023-05-17T07:45:09.446Z,0.50
2023-05-17T07:47:36.695Z,0.73
2023-05-17T07:50:04.438Z,1.13
2023-05-17T07:52:31.550Z,0.85
2023-05-17T07:54:58.665Z,0.80
2023-05-17T07:57:27.278Z,1.55
2023-05-17T07:59:54.468Z,0.88
2023-05-17T08:02:21.630Z,1.33
2023-05-17T08:04:48.782Z,1.15
2023-05-17T08:07:15.903Z,0.90
2023-05-17T08:09:45.387Z,0.50
2023-05-17T08:12:12.580Z,0.80
2023-05-17T08:14:40.153Z,1.00
2023-05-17T08:17:07.391Z,1.17
2023-05-17T08:19:34.627Z,1.35
2023-05-17T08:22:01.900Z,0.90
2023-05-17T08:24:29.097Z,0.82
2023-05-17T08:26:56.654Z,0.85
2023-05-17T08:29:23.854Z,1.17
2023-05-17T08:31:52.591Z,1.33
2023-05-17T08:34:19.737Z,1.08
2023-05-17T08:36:47.553Z,1.02
2023-05-17T08:39:14.762Z,0.75
2023-05-17T08:41:41.902Z,0.60
2023-05-17T08:44:09.590Z,0.82
2023-05-17T08:46:38.547Z,0.90
2023-05-17T08:49:06.830Z,0.80
2023-05-17T08:51:34.005Z,1.00
2023-05-17T08:54:05.118Z,1.05
2023-05-17T08:56:33.061Z,0.93
2023-05-17T08:59:00.405Z,1.25
2023-05-17T09:01:32.132Z,0.77
2023-05-17T09:04:00.863Z,0.95
2023-05-17T09:06:28.239Z,1.05
2023-05-17T09:08:55.673Z,2.60
2023-05-17T09:11:27.698Z,1.00
2023-05-17T09:13:55.225Z,0.90
2023-05-17T09:16:23.554Z,0.85
2023-05-17T09:18:54.533Z,1.17
2023-05-17T09:21:22.933Z,1.10
2023-05-17T09:24:01.672Z,0.98
2023-05-17T09:26:52.540Z,1.13
2023-05-17T09:29:19.635Z,1.20
2023-05-17T09:31:46.788Z,0.82
2023-05-17T09:34:18.705Z,0.77
2023-05-17T09:36:46.062Z,0.80
2023-05-17T09:39:14.981Z,0.70
2023-05-17T09:41:43.298Z,1.25
2023-05-17T09:44:11.578Z,0.80
2023-05-17T09:46:39.284Z,0.65
2023-05-17T09:49:07.409Z,0.70
2023-05-17T09:51:39.569Z,0.80
2023-05-17T09:54:10.488Z,0.98
2023-05-17T09:56:37.666Z,1.08
2023-05-17T09:59:05.682Z,0.82
2023-05-17T10:01:32.910Z,0.90
2023-05-17T10:04:03.913Z,1.65
2023-05-17T10:06:44.636Z,1.10
2023-05-17T10:09:14.145Z,1.30
2023-05-17T10:11:43.002Z,0.98
2023-05-17T10:14:22.578Z,1.00
2023-05-17T10:16:51.260Z,1.23
2023-05-17T10:19:20.225Z,0.90
2023-05-17T10:21:49.032Z,1.00
2023-05-17T10:24:16.782Z,0.85
2023-05-17T10:26:44.310Z,0.90
2023-05-17T10:29:11.631Z,0.73
2023-05-17T10:31:38.902Z,0.90
2023-05-17T10:34:06.644Z,0.88
2023-05-17T10:36:34.384Z,1.00
2023-05-17T10:39:01.981Z,1.05
2023-05-17T10:41:33.691Z,1.00
2023-05-17T10:44:02.710Z,0.93
2023-05-17T10:46:30.500Z,0.75
2023-05-17T10:48:59.201Z,1.05
2023-05-17T10:51:37.912Z,0.90
2023-05-17T10:54:19.970Z,0.73
2023-05-17T10:56:51.533Z,1.17
2023-05-17T10:59:19.678Z,0.85
2023-05-17T11:01:54.597Z,1.02
2023-05-17T11:04:24.120Z,1.20
2023-05-17T11:06:52.301Z,1.27
2023-05-17T11:09:23.683Z,1.25
2023-05-17T11:12:07.155Z,0.98
2023-05-17T11:14:46.258Z,1.13
2023-05-17T11:17:20.639Z,0.93
2023-05-17T11:19:57.335Z,1.30
2023-05-17T11:22:25.104Z,1.02
2023-05-17T11:24:55.935Z,1.00
2023-05-17T11:27:30.913Z,1.17
2023-05-17T11:30:00.246Z,0.98
2023-05-17T11:32:33.870Z,1.13
2023-05-17T11:35:01.629Z,1.80
2023-05-17T11:37:29.635Z,1.10
2023-05-17T11:40:07.065Z,0.80
2023-05-17T11:42:34.878Z,1.00
2023-05-17T11:45:02.861Z,1.13
2023-05-17T11:47:30.274Z,1.15
2023-05-17T11:50:01.202Z,0.63
2023-05-17T11:52:29.407Z,0.80
2023-05-17T11:54:58.011Z,0.70
2023-05-17T11:57:34.127Z,0.80
2023-05-17T12:00:01.881Z,1.00
2023-05-17T12:02:32.805Z,0.77
2023-05-17T12:05:00.330Z,0.77
2023-05-17T12:07:28.889Z,1.10
2023-05-17T12:09:55.990Z,0.63
2023-05-17T12:12:23.693Z,0.60
2023-05-17T12:14:51.004Z,0.70
2023-05-17T12:17:23.697Z,0.70
2023-05-17T12:19:53.494Z,0.90
2023-05-17T12:22:20.755Z,1.25
2023-05-17T12:24:48.011Z,0.70
2023-05-17T12:27:15.414Z,0.90
2023-05-17T12:29:42.906Z,0.95
2023-05-17T12:32:11.190Z,0.60
2023-05-17T12:34:38.640Z,0.75
2023-05-17T12:37:10.263Z,0.95
2023-05-17T12:39:37.804Z,0.70
2023-05-17T12:42:05.017Z,0.60
2023-05-17T12:44:33.158Z,0.77
2023-05-17T12:47:03.213Z,0.65
2023-05-17T12:49:30.512Z,1.27
2023-05-17T12:52:04.141Z,0.70
2023-05-17T12:54:31.331Z,0.65
2023-05-17T12:56:58.614Z,1.00
2023-05-17T12:59:26.233Z,1.15
2023-05-17T13:01:57.537Z,0.82
2023-05-17T13:04:31.989Z,0.60
2023-05-17T13:07:03.479Z,0.80
2023-05-17T13:09:31.350Z,1.30
2023-05-17T13:12:02.650Z,1.10
2023-05-17T13:14:45.670Z,0.60
2023-05-17T13:17:18.602Z,0.80
2023-05-17T13:19:45.982Z,0.77
2023-05-17T13:22:13.334Z,0.70
2023-05-17T13:24:40.508Z,1.50
2023-05-17T13:27:08.266Z,0.82
2023-05-17T13:29:40.119Z,0.68
2023-05-17T13:32:08.423Z,1.17
2023-05-17T13:34:35.767Z,0.93
2023-05-17T13:37:02.943Z,1.48
2023-05-17T13:39:30.316Z,0.95
2023-05-17T13:41:58.983Z,1.10
2023-05-17T13:44:26.291Z,0.80
2023-05-17T13:46:53.402Z,1.08
2023-05-17T13:49:21.138Z,0.93
2023-05-17T13:51:48.337Z,0.80
2023-05-17T13:54:15.530Z,0.88
2023-05-17T13:56:42.730Z,1.20
2023-05-17T13:59:10.089Z,1.02
2023-05-17T14:01:37.488Z,0.85
2023-05-17T14:04:04.943Z,1.20
2023-05-17T14:06:32.195Z,1.00
2023-05-17T14:09:00.839Z,1.08
2023-05-17T14:11:28.135Z,0.90
2023-05-17T14:13:55.455Z,1.05
2023-05-17T14:16:22.876Z,1.08
2023-05-17T14:18:50.317Z,1.48
2023-05-17T14:21:17.871Z,1.00
2023-05-17T14:23:45.179Z,1.20
2023-05-17T14:26:12.344Z,1.10
2023-05-17T14:28:39.464Z,1.05
2023-05-17T14:31:07.845Z,1.00
2023-05-17T14:33:35.441Z,0.57
2023-05-17T14:36:04.023Z,0.80
2023-05-17T14:38:31.437Z,1.08
2023-05-17T14:41:00.679Z,0.80
2023-05-17T14:43:27.956Z,0.70
2023-05-17T14:45:55.382Z,1.10
2023-05-17T14:48:22.834Z,0.80
2023-05-17T14:50:50.178Z,0.98
2023-05-17T14:53:17.621Z,1.00
2023-05-17T14:55:44.945Z,0.80
2023-05-17T14:58:14.864Z,1.10
2023-05-17T15:00:47.354Z,0.70
2023-05-17T15:03:17.844Z,1.27
2023-05-17T15:05:53.590Z,0.70
2023-05-17T15:08:21.818Z,0.80
2023-05-17T15:10:52.238Z,0.80
2023-05-17T15:13:19.406Z,1.10
2023-05-17T15:15:47.339Z,0.90
2023-05-17T15:18:14.794Z,0.70
2023-05-17T15:20:42.274Z,0.60
2023-05-17T15:23:09.415Z,0.70
2023-05-17T15:25:36.769Z,0.70
2023-05-17T15:28:04.071Z,0.63
2023-05-17T15:30:31.181Z,0.82
2023-05-17T15:32:59.174Z,1.00
2023-05-17T15:35:27.404Z,1.05
2023-05-17T15:37:54.960Z,0.85
2023-05-17T15:40:22.309Z,0.75
2023-05-17T15:42:52.462Z,1.40
2023-05-17T15:45:21.418Z,0.88
2023-05-17T15:47:49.476Z,0.90
2023-05-17T15:50:16.923Z,0.88
2023-05-17T15:52:44.113Z,0.90
2023-05-17T15:55:11.634Z,1.00
2023-05-17T15:57:38.945Z,1.35
2023-05-17T16:00:06.372Z,1.58
2023-05-17T16:02:33.575Z,0.98
2023-05-17T16:05:03.570Z,0.80
2023-05-17T16:07:31.400Z,0.90
2023-05-17T16:09:58.622Z,0.75
2023-05-17T16:12:25.911Z,0.90
2023-05-17T16:14:53.076Z,1.23
2023-05-17T16:17:20.260Z,0.93
2023-05-17T16:19:47.512Z,0.88
2023-05-17T16:22:14.690Z,0.70
2023-05-17T16:24:41.974Z,1.75
2023-05-17T16:27:09.154Z,1.02
2023-05-17T16:29:40.207Z,0.70
2023-05-17T16:32:08.361Z,0.80
2023-05-17T16:34:36.074Z,1.90
2023-05-17T16:37:04.682Z,0.70
2023-05-17T16:39:32.190Z,0.80
2023-05-17T16:41:59.371Z,1.00
2023-05-17T16:44:26.578Z,0.77
2023-05-17T16:46:53.715Z,0.95
2023-05-17T16:49:20.875Z,0.80
2023-05-17T16:51:50.030Z,0.80
2023-05-17T16:54:17.178Z,0.70
2023-05-17T16:56:44.426Z,0.82
2023-05-17T16:59:11.602Z,1.10
2023-05-17T17:01:39.267Z,0.75
2023-05-17T17:04:06.416Z,0.73
2023-05-17T17:06:34.025Z,0.90
2023-05-17T17:09:06.270Z,0.70
2023-05-17T17:11:35.011Z,0.70
2023-05-17T17:14:02.222Z,0.60
2023-05-17T17:16:29.834Z,1.00
2023-05-17T17:18:57.047Z,1.10
2023-05-17T17:21:24.705Z,1.15
2023-05-17T17:23:52.325Z,1.10
2023-05-17T17:26:19.535Z,0.80
2023-05-17T17:28:46.673Z,0.88
2023-05-17T17:31:13.849Z,0.63
2023-05-17T17:33:41.253Z,0.88
2023-05-17T17:36:11.327Z,1.27
2023-05-17T17:38:38.479Z,0.60
2023-05-17T17:41:06.346Z,1.08
2023-05-17T17:43:33.521Z,0.80
2023-05-17T17:46:00.930Z,0.80
2023-05-17T17:48:28.128Z,0.85
2023-05-17T17:50:55.687Z,1.05
2023-05-17T17:53:23.316Z,0.82
2023-05-17T17:55:50.807Z,1.00
2023-05-17T17:58:18.010Z,0.93
2023-05-17T18:00:45.361Z,0.98
2023-05-17T18:03:13.015Z,0.63
2023-05-17T18:05:40.643Z,0.90
2023-05-17T18:08:08.238Z,1.00
2023-05-17T18:10:35.416Z,0.55
2023-05-17T18:13:02.674Z,0.80
2023-05-17T18:15:29.879Z,0.80
2023-05-17T18:17:57.147Z,0.88
2023-05-17T18:20:26.230Z,0.75
2023-05-17T18:22:53.756Z,0.80
2023-05-17T18:25:20.998Z,1.00
2023-05-17T18:27:48.157Z,0.75
2023-05-17T18:30:15.527Z,0.73
2023-05-17T18:32:42.822Z,0.60
2023-05-17T18:35:11.027Z,1.25
2023-05-17T18:37:38.186Z,0.90
2023-05-17T18:40:07.031Z,0.73
2023-05-17T18:42:34.154Z,0.95
2023-05-17T18:45:01.330Z,0.70
2023-05-17T18:47:28.771Z,1.00
2023-05-17T18:49:56.093Z,0.80
2023-05-17T18:52:23.214Z,1.10
2023-05-17T18:54:50.424Z,1.30
2023-05-17T18:57:17.706Z,1.00
2023-05-17T18:59:44.860Z,0.73
2023-05-17T19:02:12.008Z,0.80
2023-05-17T19:04:39.230Z,0.68
2023-05-17T19:07:06.652Z,1.08
2023-05-17T19:09:34.612Z,0.77
2023-05-17T19:12:01.889Z,0.93
2023-05-17T19:14:29.160Z,0.73
2023-05-17T19:16:56.937Z,1.40
2023-05-17T19:19:25.507Z,0.80
2023-05-17T19:21:52.742Z,1.00
2023-05-17T19:24:19.948Z,0.93
2023-05-17T19:26:47.085Z,0.80
2023-05-17T19:29:14.231Z,0.90
2023-05-17T19:31:41.456Z,1.13
2023-05-17T19:34:08.749Z,1.08
2023-05-17T19:36:36.134Z,1.20
2023-05-17T19:39:03.410Z,1.63
2023-05-17T19:41:31.227Z,1.05
2023-05-17T19:43:58.321Z,1.30
2023-05-17T19:46:25.669Z,1.10
2023-05-17T19:48:53.060Z,1.50
2023-05-17T19:51:20.342Z,2.28
2023-05-17T19:53:53.481Z,1.55
2023-05-17T19:56:21.371Z,1.13
2023-05-17T19:58:48.662Z,1.33
2023-05-17T20:01:16.020Z,1.40
2023-05-17T20:03:43.413Z,1.30
2023-05-17T20:06:14.486Z,1.05
2023-05-17T20:08:42.356Z,1.27
2023-05-17T20:11:09.497Z,1.45
2023-05-17T20:13:40.315Z,1.27
2023-05-17T20:16:12.590Z,1.58
2023-05-17T20:18:42.378Z,0.95
2023-05-17T20:21:11.281Z,1.13
2023-05-17T20:23:38.506Z,1.15
2023-05-17T20:26:05.811Z,1.00
2023-05-17T20:28:32.934Z,1.00
2023-05-17T20:31:00.793Z,1.17
2023-05-17T20:33:28.113Z,1.02
2023-05-17T20:35:55.559Z,1.20
2023-05-17T20:38:22.834Z,1.08
2023-05-17T20:40:51.977Z,1.10
2023-05-17T20:43:19.793Z,1.48
2023-05-17T20:45:47.047Z,1.80
2023-05-17T20:48:14.208Z,1.33
2023-05-17T20:50:41.470Z,1.60
2023-05-17T20:53:10.510Z,2.33
2023-05-17T20:55:37.840Z,1.58
2023-05-17T20:58:05.148Z,1.45
2023-05-17T21:00:32.467Z,1.10
2023-05-17T21:02:59.901Z,1.30
2023-05-17T21:05:28.423Z,1.40
2023-05-17T21:07:56.576Z,1.83
2023-05-17T21:10:23.650Z,1.60
2023-05-17T21:12:50.930Z,1.35
2023-05-17T21:15:18.101Z,1.25
2023-05-17T21:17:45.398Z,1.90
2023-05-17T21:20:12.794Z,2.08
2023-05-17T21:22:40.026Z,1.83
2023-05-17T21:25:07.481Z,2.85
2023-05-17T21:27:35.086Z,1.90
2023-05-17T21:30:02.269Z,1.60
2023-05-17T21:32:29.741Z,1.60
2023-05-17T21:34:58.349Z,1.55
2023-05-17T21:37:25.491Z,1.80
2023-05-17T21:39:52.645Z,1.50
2023-05-17T21:42:19.965Z,1.55
2023-05-17T21:44:47.294Z,1.33
2023-05-17T21:47:14.467Z,1.52
2023-05-17T21:49:43.851Z,1.65
2023-05-17T21:52:12.282Z,1.45
2023-05-17T21:54:41.232Z,2.15
2023-05-17T21:57:08.648Z,1.70
2023-05-17T21:59:35.863Z,2.10
2023-05-17T22:02:02.961Z,1.70
2023-05-17T22:04:30.034Z,1.73
2023-05-17T22:06:57.604Z,1.50
2023-05-17T22:09:24.752Z,2.30
2023-05-17T22:11:52.464Z,2.08
2023-05-17T22:14:20.196Z,1.40
2023-05-17T22:16:47.326Z,1.85
2023-05-17T22:19:14.584Z,1.88
2023-05-17T22:21:42.156Z,1.50
2023-05-17T22:24:09.281Z,1.52
2023-05-17T22:26:36.517Z,1.92
2023-05-17T22:29:03.849Z,2.00
2023-05-17T22:31:31.670Z,1.33
2023-05-17T22:33:58.811Z,1.52
2023-05-17T22:36:26.691Z,2.10
2023-05-17T22:38:53.922Z,1.42
2023-05-17T22:41:21.649Z,1.65
2023-05-17T22:43:48.760Z,1.63
2023-05-17T22:46:16.062Z,1.75
2023-05-17T22:48:43.281Z,1.52
2023-05-17T22:51:10.440Z,2.03
2023-05-17T22:53:37.595Z,1.80
2023-05-17T22:56:04.748Z,1.88
2023-05-17T22:58:31.892Z,1.67
2023-05-17T23:00:59.042Z,1.77
2023-05-17T23:03:26.373Z,1.83
2023-05-17T23:06:02.260Z,2.25
2023-05-17T23:08:33.044Z,1.80
2023-05-17T23:11:01.765Z,1.70
2023-05-17T23:13:28.964Z,2.00
2023-05-17T23:15:56.769Z,1.40
2023-05-17T23:18:23.964Z,2.30
2023-05-17T23:20:51.344Z,1.80
2023-05-17T23:23:18.498Z,2.00
2023-05-17T23:25:48.505Z,1.65
2023-05-17T23:28:15.820Z,1.85
2023-05-17T23:30:44.543Z,1.75
2023-05-17T23:33:11.739Z,1.80
2023-05-17T23:35:39.039Z,2.35
2023-05-17T23:38:07.247Z,2.08
2023-05-17T23:40:34.451Z,2.10
2023-05-17T23:43:01.707Z,1.95
2023-05-17T23:45:29.882Z,2.25
2023-05-17T23:48:00.736Z,2.20
2023-05-17T23:50:28.210Z,2.55
2023-05-17T23:52:55.952Z,1.90
2023-05-17T23:55:23.207Z,1.92
2023-05-17T23:57:50.306Z,1.67
